Bartlettsville, Indiana
Current Conditions -  °F | °C
As of 3:53 PM on Thursday 18 Dec 2014 (Local Time) from KBMG Reporting Station
Overcast Overcast  
Wind Chill: 30°   Ceiling: 1900
Heat Index: 30°   Visibility: 10mi
Dew Point: 22°   Wind: 0mph
Humidity: 72%   Direction: NA
Pressure: 30.22"   Gusts: NA
Location:  38.8737°N, 86.4563°W
Report Text: KBMG 182053Z 00000KT 10SM OVC019 M01/M06 A3022 RMK AO2 SLP241 T10111056 55007
Loading
Personal Weather Stations






























Interactive Weather Map New forecast layout! Learn more

10-Day Weather Forecast

Advertisements
Track Severe Weather on mobile